X  Fechar Dados meteorológicos de METAR da aviação     LEAL Alicante-Elche Miguel Hernández Airport
Temperatura
23°C Temperatura
19°C Ponto de orvalho
78% Umidade



Vento
8 KM/H
5 MPH
2 M/S
4 NÓS



50°
NL
Condições atuais

Limpo Limpo
Pressão 1010.84 (hPa) - 29.85 (inHg)
Visibilidade 6 (milha) - 9.7 (km)
Aeroporto
Código do aeroporto LEAL

Localização: Alicante-Elche Miguel Hernández Airport
Distância: 60 (km)

Metar:
LEAL 252200Z 05004KT 020V080 CAVOK 23/19 Q1011 NOSIG

Hora: 26-06-2024 00:00 CEST